createdAt,value
2019-01-26T00:00:46.814Z,1.00
2019-01-26T00:03:21.324Z,1.00
2019-01-26T00:05:55.026Z,1.00
2019-01-26T00:08:28.669Z,1.10
2019-01-26T00:11:02.578Z,1.10
2019-01-26T00:13:36.091Z,1.00
2019-01-26T00:16:09.680Z,1.00
2019-01-26T00:18:43.977Z,1.10
2019-01-26T00:21:18.311Z,1.10
2019-01-26T00:23:52.701Z,1.10
2019-01-26T00:26:27.039Z,1.10
2019-01-26T00:29:00.567Z,1.10
2019-01-26T00:31:34.126Z,1.10
2019-01-26T00:34:07.679Z,1.20
2019-01-26T00:36:42.040Z,1.20
2019-01-26T00:39:15.546Z,1.20
2019-01-26T00:41:49.085Z,1.20
2019-01-26T00:44:22.657Z,1.20
2019-01-26T00:46:57.190Z,1.10
2019-01-26T00:49:30.893Z,1.10
2019-01-26T00:52:04.562Z,1.00
2019-01-26T00:54:38.067Z,1.00
2019-01-26T00:57:11.678Z,1.00
2019-01-26T00:59:46.015Z,0.80
2019-01-26T01:02:19.679Z,0.80
2019-01-26T01:04:53.396Z,0.70
2019-01-26T01:07:27.019Z,0.70
2019-01-26T01:10:00.827Z,0.70
2019-01-26T01:12:34.396Z,0.70
2019-01-26T01:15:11.129Z,0.70
2019-01-26T01:17:44.827Z,0.70
2019-01-26T01:20:18.358Z,0.60
2019-01-26T01:22:51.891Z,0.60
2019-01-26T01:25:25.604Z,0.70
2019-01-26T01:27:59.173Z,0.60
2019-01-26T01:30:33.643Z,0.60
2019-01-26T01:33:07.463Z,0.60
2019-01-26T01:35:41.730Z,0.60
2019-01-26T01:38:15.306Z,0.60
2019-01-26T01:40:48.811Z,0.60
2019-01-26T01:43:22.577Z,0.60
2019-01-26T01:45:56.159Z,0.50
2019-01-26T01:48:29.755Z,0.50
2019-01-26T01:51:03.385Z,0.50
2019-01-26T01:53:37.018Z,0.50
2019-01-26T01:56:10.590Z,0.50
2019-01-26T01:58:44.228Z,0.50
2019-01-26T02:01:17.756Z,0.50
2019-01-26T02:03:51.353Z,0.50
2019-01-26T02:06:24.948Z,0.60
2019-01-26T02:08:58.507Z,0.60
2019-01-26T02:11:32.234Z,0.50
2019-01-26T02:14:06.683Z,0.40
2019-01-26T02:16:40.251Z,0.40
2019-01-26T02:19:14.014Z,0.40
2019-01-26T02:21:47.565Z,0.40
2019-01-26T02:24:21.111Z,0.40
2019-01-26T02:26:54.800Z,0.40
2019-01-26T02:29:28.399Z,0.30
2019-01-26T02:32:02.224Z,0.30
2019-01-26T02:34:35.890Z,0.30
2019-01-26T02:37:09.529Z,0.30
2019-01-26T02:39:43.080Z,0.50
2019-01-26T02:42:16.580Z,0.50
2019-01-26T02:44:50.095Z,0.70
2019-01-26T02:47:23.695Z,0.80
2019-01-26T02:49:57.443Z,0.80
2019-01-26T02:52:31.219Z,0.90
2019-01-26T02:55:05.539Z,0.90
2019-01-26T02:57:39.921Z,0.90
2019-01-26T03:00:16.041Z,0.90
2019-01-26T03:02:50.506Z,0.90
2019-01-26T03:05:24.855Z,1.00
2019-01-26T03:07:58.536Z,0.90
2019-01-26T03:10:32.128Z,1.00
2019-01-26T03:13:05.690Z,1.00
2019-01-26T03:15:39.326Z,1.00
2019-01-26T03:18:13.077Z,1.00
2019-01-26T03:20:46.649Z,1.10
2019-01-26T03:23:21.813Z,1.20
2019-01-26T03:25:55.557Z,1.20
2019-01-26T03:28:29.130Z,1.30
2019-01-26T03:31:02.863Z,1.30
2019-01-26T03:33:37.114Z,1.30
2019-01-26T03:36:11.422Z,1.40
2019-01-26T03:38:45.037Z,1.40
2019-01-26T03:41:18.559Z,1.50
2019-01-26T03:43:52.131Z,1.50
2019-01-26T03:46:26.639Z,1.60
2019-01-26T03:49:00.283Z,1.60
2019-01-26T03:51:33.846Z,1.70
2019-01-26T03:54:08.193Z,1.70
2019-01-26T03:56:42.295Z,1.70
2019-01-26T03:59:16.103Z,1.70
2019-01-26T04:01:49.836Z,1.80
2019-01-26T04:04:23.402Z,1.80
2019-01-26T04:06:57.023Z,1.90
2019-01-26T04:09:30.687Z,2.00
2019-01-26T04:12:05.003Z,2.00
2019-01-26T04:14:39.396Z,2.10
2019-01-26T04:17:13.040Z,2.00
2019-01-26T04:19:46.631Z,2.10
2019-01-26T04:22:20.261Z,2.10
2019-01-26T04:24:53.845Z,2.10
2019-01-26T04:27:27.526Z,2.10
2019-01-26T04:30:01.058Z,2.20
2019-01-26T04:32:34.657Z,2.20
2019-01-26T04:35:08.260Z,2.20
2019-01-26T04:37:41.879Z,2.20
2019-01-26T04:40:15.464Z,2.20
2019-01-26T04:42:49.976Z,2.30
2019-01-26T04:45:24.404Z,2.30
2019-01-26T04:47:58.099Z,2.30
2019-01-26T04:50:31.669Z,2.40
2019-01-26T04:53:05.200Z,2.40
2019-01-26T04:55:38.791Z,2.40
2019-01-26T04:58:12.403Z,2.40
2019-01-26T05:00:46.103Z,2.40
2019-01-26T05:03:19.906Z,2.40
2019-01-26T05:05:53.501Z,2.50
2019-01-26T05:08:27.069Z,2.50
2019-01-26T05:11:00.606Z,2.50
2019-01-26T05:13:34.129Z,2.60
2019-01-26T05:16:07.727Z,2.60
2019-01-26T05:18:41.358Z,2.60
2019-01-26T05:21:14.937Z,2.60
2019-01-26T05:23:48.659Z,2.60
2019-01-26T05:26:22.203Z,2.60
2019-01-26T05:28:55.918Z,2.60
2019-01-26T05:31:29.567Z,2.70
2019-01-26T05:34:03.126Z,2.70
2019-01-26T05:36:36.635Z,2.70
2019-01-26T05:39:10.263Z,2.70
2019-01-26T05:41:44.028Z,2.80
2019-01-26T05:44:17.678Z,2.80
2019-01-26T05:46:51.404Z,2.70
2019-01-26T05:49:24.977Z,2.70
2019-01-26T05:51:58.543Z,2.70
2019-01-26T05:54:32.135Z,2.80
2019-01-26T05:57:05.680Z,2.70
2019-01-26T05:59:39.316Z,2.70
2019-01-26T06:02:12.887Z,2.70
2019-01-26T06:04:46.437Z,2.70
2019-01-26T06:07:19.954Z,2.70
2019-01-26T06:09:53.757Z,2.80
2019-01-26T06:12:27.455Z,2.80
2019-01-26T06:15:01.017Z,2.90
2019-01-26T06:17:34.559Z,2.90
2019-01-26T06:20:11.059Z,2.90
2019-01-26T06:22:44.833Z,3.00
2019-01-26T06:25:18.608Z,3.10
2019-01-26T06:27:52.390Z,3.10
2019-01-26T06:30:26.144Z,3.10
2019-01-26T06:32:59.899Z,3.20
2019-01-26T06:35:34.275Z,3.20
2019-01-26T06:38:08.802Z,3.20
2019-01-26T06:40:42.447Z,3.20
2019-01-26T06:43:16.088Z,3.20
2019-01-26T06:45:49.788Z,3.30
2019-01-26T06:48:23.387Z,3.30
2019-01-26T06:50:57.008Z,3.30
2019-01-26T06:53:31.552Z,3.30
2019-01-26T06:56:05.181Z,3.30
2019-01-26T06:58:38.928Z,3.30
2019-01-26T07:01:13.264Z,3.30
2019-01-26T07:03:46.962Z,3.30
2019-01-26T07:06:20.543Z,3.30
2019-01-26T07:08:54.080Z,3.30
2019-01-26T07:11:27.651Z,3.40
2019-01-26T07:14:01.204Z,3.40
2019-01-26T07:16:34.819Z,3.50
2019-01-26T07:19:08.336Z,3.50
2019-01-26T07:21:41.952Z,3.50
2019-01-26T07:24:16.360Z,3.60
2019-01-26T07:26:50.122Z,3.60
2019-01-26T07:29:23.947Z,3.60
2019-01-26T07:31:57.795Z,3.60
2019-01-26T07:34:31.543Z,3.60
2019-01-26T07:37:05.226Z,3.60
2019-01-26T07:39:38.935Z,3.70
2019-01-26T07:42:12.726Z,3.80
2019-01-26T07:44:46.400Z,3.80
2019-01-26T07:47:20.727Z,3.90
2019-01-26T07:49:55.175Z,3.90
2019-01-26T07:52:29.508Z,3.90
2019-01-26T07:55:03.186Z,3.90
2019-01-26T07:57:36.956Z,3.90
2019-01-26T08:00:14.268Z,3.90
2019-01-26T08:02:47.967Z,3.90
2019-01-26T08:05:21.812Z,4.00
2019-01-26T08:07:56.635Z,4.00
2019-01-26T08:10:30.414Z,4.10
2019-01-26T08:13:04.136Z,4.10
2019-01-26T08:15:38.640Z,4.20
2019-01-26T08:18:12.998Z,4.30
2019-01-26T08:20:46.700Z,4.30
2019-01-26T08:23:21.199Z,4.40
2019-01-26T08:25:54.988Z,4.40
2019-01-26T08:28:29.520Z,4.40
2019-01-26T08:31:03.103Z,4.40
2019-01-26T08:33:36.855Z,4.50
2019-01-26T08:36:10.640Z,4.50
2019-01-26T08:38:44.224Z,4.60
2019-01-26T08:41:17.753Z,4.60
2019-01-26T08:43:51.431Z,4.70
2019-01-26T08:46:25.035Z,4.80
2019-01-26T08:48:59.399Z,4.60
2019-01-26T08:51:33.164Z,4.60
2019-01-26T08:54:06.761Z,4.60
2019-01-26T08:56:40.378Z,4.60
2019-01-26T08:59:14.123Z,4.70
2019-01-26T09:01:47.917Z,4.70
2019-01-26T09:04:22.304Z,4.80
2019-01-26T09:06:56.012Z,4.90
2019-01-26T09:09:29.581Z,5.00
2019-01-26T09:12:03.185Z,5.00
2019-01-26T09:14:36.995Z,5.00
2019-01-26T09:17:10.606Z,5.10
2019-01-26T09:19:44.228Z,5.10
2019-01-26T09:22:18.737Z,5.10
2019-01-26T09:24:52.482Z,5.10
2019-01-26T09:27:26.309Z,5.10
2019-01-26T09:29:59.826Z,5.10
2019-01-26T09:32:33.423Z,5.00
2019-01-26T09:35:06.980Z,5.00
2019-01-26T09:37:41.381Z,5.00
2019-01-26T09:40:17.347Z,4.90
2019-01-26T09:42:50.975Z,4.90
2019-01-26T09:45:24.739Z,5.00
2019-01-26T09:47:58.308Z,5.10
2019-01-26T09:50:32.077Z,5.10
2019-01-26T09:53:05.662Z,5.30
2019-01-26T09:55:39.327Z,5.40
2019-01-26T09:58:12.871Z,5.60
2019-01-26T10:00:46.413Z,5.80
2019-01-26T10:03:20.782Z,5.80
2019-01-26T10:05:54.443Z,5.80
2019-01-26T10:08:28.019Z,5.90
2019-01-26T10:11:01.747Z,6.10
2019-01-26T10:13:35.548Z,6.30
2019-01-26T10:16:09.152Z,6.40
2019-01-26T10:18:42.906Z,6.30
2019-01-26T10:21:16.625Z,6.30
2019-01-26T10:23:50.296Z,6.10
2019-01-26T10:26:23.974Z,6.10
2019-01-26T10:28:58.588Z,6.10
2019-01-26T10:31:32.112Z,6.10
2019-01-26T10:34:06.403Z,6.20
2019-01-26T10:36:40.729Z,6.10
2019-01-26T10:39:15.242Z,6.20
2019-01-26T10:41:49.004Z,6.20
2019-01-26T10:44:22.586Z,6.30
2019-01-26T10:46:56.284Z,6.50
2019-01-26T10:49:30.126Z,6.50
2019-01-26T10:52:03.787Z,6.60
2019-01-26T10:54:38.105Z,9.30
2019-01-26T10:57:11.838Z,9.20
2019-01-26T10:59:46.212Z,11.90
2019-01-26T11:02:19.895Z,11.80
2019-01-26T11:04:53.533Z,13.20
2019-01-26T11:07:27.152Z,13.10
2019-01-26T11:10:00.772Z,11.40
2019-01-26T11:12:34.596Z,11.60
2019-01-26T11:15:08.157Z,12.80
2019-01-26T11:17:41.714Z,12.50
2019-01-26T11:20:15.347Z,10.50
2019-01-26T11:22:49.072Z,10.80
2019-01-26T11:25:22.754Z,10.70
2019-01-26T11:27:56.490Z,10.10
2019-01-26T11:30:30.073Z,9.50
2019-01-26T11:33:03.634Z,8.80
2019-01-26T11:35:37.391Z,8.60
2019-01-26T11:38:11.083Z,8.70
2019-01-26T11:40:44.607Z,8.70
2019-01-26T11:43:18.398Z,9.30
2019-01-26T11:45:52.168Z,9.30
2019-01-26T11:48:26.246Z,11.30
2019-01-26T11:51:00.618Z,12.00
2019-01-26T11:53:35.160Z,12.10
2019-01-26T11:56:11.443Z,12.10
2019-01-26T11:58:45.104Z,12.20
2019-01-26T12:01:19.292Z,14.00
2019-01-26T12:03:54.509Z,13.90
2019-01-26T12:06:28.226Z,12.80
2019-01-26T12:09:02.807Z,12.20
2019-01-26T12:11:36.420Z,12.10
2019-01-26T12:14:09.986Z,12.00
2019-01-26T12:16:43.778Z,10.50
2019-01-26T12:19:22.281Z,9.30
2019-01-26T12:21:51.071Z,8.90
2019-01-26T12:24:24.614Z,9.00
2019-01-26T12:26:58.209Z,8.50
2019-01-26T12:29:32.617Z,8.20
2019-01-26T12:32:06.384Z,8.20
2019-01-26T12:34:41.015Z,8.30
2019-01-26T12:37:14.770Z,8.40
2019-01-26T12:39:48.351Z,8.30
2019-01-26T12:42:21.871Z,8.10
2019-01-26T12:44:56.299Z,8.20
2019-01-26T12:47:29.977Z,8.50
2019-01-26T12:50:04.386Z,8.50
2019-01-26T12:52:38.215Z,8.40
2019-01-26T12:55:14.548Z,8.30
2019-01-26T12:57:48.263Z,8.40
2019-01-26T13:00:24.661Z,8.20
2019-01-26T13:02:58.331Z,8.60
2019-01-26T13:05:31.942Z,8.60
2019-01-26T13:08:05.515Z,8.60
2019-01-26T13:10:41.431Z,8.60
2019-01-26T13:13:15.075Z,8.60
2019-01-26T13:15:49.410Z,8.30
2019-01-26T13:18:23.028Z,8.30
2019-01-26T13:20:56.870Z,8.30
2019-01-26T13:23:30.672Z,8.40
2019-01-26T13:26:04.342Z,8.30
2019-01-26T13:28:37.970Z,8.40
2019-01-26T13:31:11.595Z,8.40
2019-01-26T13:33:45.194Z,8.10
2019-01-26T13:36:19.011Z,7.90
2019-01-26T13:38:52.635Z,7.90
2019-01-26T13:41:26.286Z,7.80
2019-01-26T13:43:59.978Z,8.00
2019-01-26T13:46:33.568Z,8.00
2019-01-26T13:49:07.160Z,8.10
2019-01-26T13:51:40.890Z,8.10
2019-01-26T13:54:15.292Z,7.90
2019-01-26T13:56:48.958Z,7.90
2019-01-26T13:59:23.415Z,7.70
2019-01-26T14:01:57.139Z,7.70
2019-01-26T14:04:30.707Z,7.60
2019-01-26T14:07:04.310Z,7.60
2019-01-26T14:09:38.631Z,7.60
2019-01-26T14:12:12.301Z,7.60
2019-01-26T14:14:45.844Z,7.50
2019-01-26T14:17:20.369Z,7.50
2019-01-26T14:19:53.051Z,7.40
2019-01-26T14:22:26.777Z,7.40
2019-01-26T14:25:00.357Z,7.20
2019-01-26T14:27:34.172Z,7.20
2019-01-26T14:30:11.458Z,7.20
2019-01-26T14:32:52.297Z,7.20
2019-01-26T14:35:19.580Z,7.20
2019-01-26T14:37:53.400Z,7.00
2019-01-26T14:40:27.831Z,7.10
2019-01-26T14:43:01.491Z,7.00
2019-01-26T14:45:35.157Z,7.00
2019-01-26T14:48:08.760Z,7.00
2019-01-26T14:50:42.506Z,7.00
2019-01-26T14:53:16.036Z,6.90
2019-01-26T14:55:49.622Z,6.80
2019-01-26T14:58:23.350Z,6.90
2019-01-26T15:00:57.062Z,6.80
2019-01-26T15:03:30.724Z,6.90
2019-01-26T15:06:04.413Z,6.90
2019-01-26T15:08:38.028Z,6.90
2019-01-26T15:11:11.732Z,6.80
2019-01-26T15:13:45.336Z,6.80
2019-01-26T15:16:19.047Z,6.80
2019-01-26T15:18:52.637Z,6.60
2019-01-26T15:21:26.406Z,6.60
2019-01-26T15:24:00.022Z,6.60
2019-01-26T15:26:34.420Z,6.50
2019-01-26T15:29:07.993Z,6.40
2019-01-26T15:31:42.473Z,6.40
2019-01-26T15:34:16.210Z,6.40
2019-01-26T15:36:49.831Z,6.40
2019-01-26T15:39:24.395Z,6.40
2019-01-26T15:41:58.157Z,6.40
2019-01-26T15:44:31.939Z,6.40
2019-01-26T15:47:05.503Z,6.40
2019-01-26T15:49:39.142Z,6.40
2019-01-26T15:52:13.523Z,6.30
2019-01-26T15:54:47.266Z,6.30
2019-01-26T15:57:20.918Z,6.40
2019-01-26T15:59:54.637Z,6.40
2019-01-26T16:02:28.235Z,6.30
2019-01-26T16:05:01.856Z,6.30
2019-01-26T16:07:35.377Z,6.30
2019-01-26T16:10:08.975Z,6.30
2019-01-26T16:12:42.732Z,6.30
2019-01-26T16:15:17.314Z,6.30
2019-01-26T16:17:50.894Z,6.30
2019-01-26T16:20:24.603Z,6.30
2019-01-26T16:22:58.176Z,6.30
2019-01-26T16:25:31.764Z,6.40
2019-01-26T16:28:05.296Z,6.40
2019-01-26T16:30:38.875Z,6.40
2019-01-26T16:33:12.446Z,6.40
2019-01-26T16:35:46.170Z,6.30
2019-01-26T16:38:19.904Z,6.30
2019-01-26T16:40:53.641Z,6.30
2019-01-26T16:43:27.206Z,6.30
2019-01-26T16:46:01.036Z,6.30
2019-01-26T16:48:34.587Z,6.30
2019-01-26T16:51:08.818Z,6.30
2019-01-26T16:53:41.707Z,6.30
2019-01-26T16:56:16.211Z,6.30
2019-01-26T16:58:49.964Z,6.20
2019-01-26T17:01:23.680Z,6.20
2019-01-26T17:03:57.331Z,6.20
2019-01-26T17:06:31.078Z,6.20
2019-01-26T17:09:04.878Z,6.20
2019-01-26T17:11:39.293Z,6.10
2019-01-26T17:14:12.906Z,6.00
2019-01-26T17:16:46.680Z,6.10
2019-01-26T17:19:20.427Z,6.10
2019-01-26T17:21:54.169Z,6.10
2019-01-26T17:24:27.768Z,6.10
2019-01-26T17:27:01.324Z,6.10
2019-01-26T17:29:34.974Z,6.10
2019-01-26T17:32:09.298Z,6.10
2019-01-26T17:34:43.046Z,6.10
2019-01-26T17:37:16.691Z,6.20
2019-01-26T17:39:51.167Z,6.20
2019-01-26T17:42:24.930Z,6.20
2019-01-26T17:44:58.758Z,6.20
2019-01-26T17:47:32.367Z,6.10
2019-01-26T17:50:07.134Z,6.10
2019-01-26T17:52:40.770Z,6.10
2019-01-26T17:55:14.380Z,6.10
2019-01-26T17:57:47.978Z,6.10
2019-01-26T18:00:23.279Z,6.10
2019-01-26T18:02:56.855Z,6.10
2019-01-26T18:05:30.601Z,6.10
2019-01-26T18:08:04.176Z,6.10
2019-01-26T18:10:37.853Z,6.10
2019-01-26T18:13:11.495Z,6.00
2019-01-26T18:15:45.190Z,5.90
2019-01-26T18:18:18.842Z,5.90
2019-01-26T18:20:53.393Z,5.80
2019-01-26T18:23:27.124Z,5.80
2019-01-26T18:26:00.649Z,5.80
2019-01-26T18:28:34.323Z,5.80
2019-01-26T18:31:08.094Z,5.80
2019-01-26T18:33:41.678Z,5.90
2019-01-26T18:36:16.079Z,5.90
2019-01-26T18:38:50.526Z,5.90
2019-01-26T18:41:24.085Z,5.90
2019-01-26T18:43:57.651Z,5.90
2019-01-26T18:46:31.408Z,5.80
2019-01-26T18:49:05.847Z,5.90
2019-01-26T18:51:39.528Z,5.90
2019-01-26T18:54:13.147Z,5.90
2019-01-26T18:56:46.897Z,5.90
2019-01-26T18:59:20.651Z,5.90
2019-01-26T19:01:54.994Z,5.90
2019-01-26T19:04:28.595Z,5.80
2019-01-26T19:07:02.174Z,5.90
2019-01-26T19:09:35.787Z,5.90
2019-01-26T19:12:09.487Z,5.90
2019-01-26T19:14:43.083Z,5.90
2019-01-26T19:17:16.884Z,5.90
2019-01-26T19:19:50.485Z,5.90
2019-01-26T19:22:24.098Z,5.80
2019-01-26T19:24:57.831Z,5.80
2019-01-26T19:27:31.364Z,5.80
2019-01-26T19:30:04.989Z,5.80
2019-01-26T19:32:38.627Z,5.70
2019-01-26T19:35:12.428Z,5.80
2019-01-26T19:37:46.106Z,5.80
2019-01-26T19:40:19.723Z,5.70
2019-01-26T19:42:53.273Z,5.70
2019-01-26T19:45:27.006Z,5.70
2019-01-26T19:48:00.613Z,5.70
2019-01-26T19:50:35.149Z,5.70
2019-01-26T19:53:08.846Z,5.70
2019-01-26T19:55:42.439Z,5.60
2019-01-26T19:58:16.092Z,5.60
2019-01-26T20:00:49.890Z,5.70
2019-01-26T20:03:24.170Z,5.70
2019-01-26T20:05:58.682Z,5.60
2019-01-26T20:08:33.090Z,5.60
2019-01-26T20:11:06.805Z,5.60
2019-01-26T20:13:40.550Z,5.60
2019-01-26T20:16:14.114Z,5.60
2019-01-26T20:18:47.683Z,5.60
2019-01-26T20:21:21.229Z,5.60
2019-01-26T20:23:54.798Z,5.50
2019-01-26T20:26:28.443Z,5.50
2019-01-26T20:29:02.934Z,5.40
2019-01-26T20:31:36.677Z,5.40
2019-01-26T20:34:10.341Z,5.40
2019-01-26T20:36:43.976Z,5.40
2019-01-26T20:39:17.576Z,5.40
2019-01-26T20:41:52.043Z,5.30
2019-01-26T20:44:25.739Z,5.30
2019-01-26T20:46:59.268Z,5.20
2019-01-26T20:49:32.820Z,5.20
2019-01-26T20:52:06.388Z,5.20
2019-01-26T20:54:39.936Z,5.20
2019-01-26T20:57:13.523Z,5.20
2019-01-26T20:59:47.183Z,5.20
2019-01-26T21:02:21.514Z,5.10
2019-01-26T21:04:55.188Z,5.10
2019-01-26T21:07:28.818Z,5.10
2019-01-26T21:10:02.513Z,5.10
2019-01-26T21:12:37.034Z,5.10
2019-01-26T21:15:10.631Z,5.20
2019-01-26T21:17:44.152Z,5.20
2019-01-26T21:20:18.739Z,5.20
2019-01-26T21:22:52.300Z,5.10
2019-01-26T21:25:25.893Z,5.20
2019-01-26T21:27:59.523Z,5.20
2019-01-26T21:30:33.152Z,5.20
2019-01-26T21:33:06.768Z,5.20
2019-01-26T21:35:40.371Z,5.10
2019-01-26T21:38:13.948Z,5.20
2019-01-26T21:40:47.466Z,5.20
2019-01-26T21:43:20.973Z,5.20
2019-01-26T21:45:54.563Z,5.20
2019-01-26T21:48:28.306Z,5.30
2019-01-26T21:51:02.806Z,5.30
2019-01-26T21:53:37.255Z,5.30
2019-01-26T21:56:10.946Z,5.30
2019-01-26T21:58:44.502Z,5.30
2019-01-26T22:01:18.068Z,5.40
2019-01-26T22:03:52.403Z,5.40
2019-01-26T22:06:26.015Z,5.40
2019-01-26T22:09:00.462Z,5.40
2019-01-26T22:11:34.179Z,5.40
2019-01-26T22:14:08.729Z,5.30
2019-01-26T22:16:43.147Z,5.30
2019-01-26T22:19:21.764Z,5.30
2019-01-26T22:21:50.675Z,5.30
2019-01-26T22:24:24.305Z,5.30
2019-01-26T22:26:57.928Z,5.30
2019-01-26T22:29:31.533Z,5.30
2019-01-26T22:32:05.240Z,5.30
2019-01-26T22:34:38.972Z,5.40
2019-01-26T22:37:12.760Z,5.40
2019-01-26T22:39:46.351Z,5.40
2019-01-26T22:42:20.092Z,5.50
2019-01-26T22:44:53.955Z,5.50
2019-01-26T22:47:27.706Z,5.50
2019-01-26T22:50:01.407Z,5.50
2019-01-26T22:52:35.973Z,5.50
2019-01-26T22:55:10.525Z,5.50
2019-01-26T22:57:44.984Z,5.50
2019-01-26T23:14:05.086Z,5.50
2019-01-26T23:16:43.500Z,5.50
2019-01-26T23:19:18.075Z,5.50
2019-01-26T23:21:59.443Z,5.50
2019-01-26T23:24:40.134Z,5.50
2019-01-26T23:27:20.614Z,5.50
2019-01-26T23:30:01.224Z,5.50
2019-01-26T23:32:34.938Z,5.40
2019-01-26T23:35:08.719Z,5.40
2019-01-26T23:37:42.328Z,5.40
2019-01-26T23:40:15.923Z,5.40
2019-01-26T23:42:49.640Z,5.50
2019-01-26T23:45:23.193Z,5.40
2019-01-26T23:47:56.958Z,5.30
2019-01-26T23:50:30.529Z,5.30
2019-01-26T23:53:04.086Z,5.20
2019-01-26T23:55:37.631Z,5.20
2019-01-26T23:58:11.229Z,5.20
